createdAt,value
2019-04-01T00:01:09.410Z,28.40
2019-04-01T00:03:56.918Z,29.13
2019-04-01T00:09:38.078Z,29.47
2019-04-01T00:12:06.223Z,30.50
2019-04-01T00:14:34.361Z,29.72
2019-04-01T00:17:21.908Z,29.37
2019-04-01T00:19:50.038Z,29.93
2019-04-01T00:22:37.695Z,30.40
2019-04-01T00:31:20.256Z,30.97
2019-04-01T00:33:48.389Z,28.90
2019-04-01T00:36:35.887Z,29.70
2019-04-01T00:39:23.362Z,28.10
2019-04-01T00:42:10.930Z,28.33
2019-04-01T00:44:40.476Z,28.83
2019-04-01T00:47:08.954Z,29.60
2019-04-01T00:49:37.170Z,29.83
2019-04-01T00:52:05.326Z,27.63
2019-04-01T00:54:52.884Z,30.00
2019-04-01T00:57:21.028Z,28.50
2019-04-01T00:59:49.162Z,28.53
2019-04-01T01:02:36.700Z,27.53
2019-04-01T01:05:24.186Z,28.17
2019-04-01T01:10:54.060Z,29.50
2019-04-01T01:13:41.546Z,28.07
2019-04-01T01:16:09.720Z,27.73
2019-04-01T01:18:37.874Z,27.17
2019-04-01T01:21:06.011Z,28.10
2019-04-01T01:23:53.653Z,28.00
2019-04-01T01:26:21.814Z,29.33
2019-04-01T01:29:09.346Z,28.63
2019-04-01T01:31:37.667Z,30.07
2019-04-01T01:34:05.864Z,28.80
2019-04-01T01:36:53.482Z,28.97
2019-04-01T01:39:41.019Z,29.57
2019-04-01T01:42:09.271Z,29.60
2019-04-01T01:44:37.384Z,28.93
2019-04-01T01:47:24.914Z,27.40
2019-04-01T01:50:12.403Z,29.23
2019-04-01T02:13:39.421Z,30.17
2019-04-01T02:16:26.994Z,27.97
2019-04-01T02:24:47.928Z,29.40
2019-04-01T02:27:35.402Z,28.63
2019-04-01T02:30:04.685Z,28.13
2019-04-01T02:32:32.876Z,28.53
2019-04-01T02:35:01.031Z,26.80
2019-04-01T02:40:22.575Z,30.23
2019-04-01T02:42:50.787Z,28.43
2019-04-01T02:45:18.927Z,28.10
2019-04-01T02:47:47.084Z,28.87
2019-04-01T02:50:15.239Z,28.60
2019-04-01T02:52:43.376Z,28.53
2019-04-01T02:55:31.003Z,29.30
2019-04-01T02:57:59.138Z,27.27
2019-04-01T03:00:46.628Z,28.87
2019-04-01T03:21:31.369Z,27.17
2019-04-01T03:23:59.499Z,26.07
2019-04-01T03:26:47.144Z,25.90
2019-04-01T03:29:15.281Z,25.83
2019-04-01T03:31:43.419Z,26.40
2019-04-01T03:34:11.543Z,25.40
2019-04-01T03:36:58.979Z,24.23
2019-04-01T03:39:27.484Z,24.73
2019-04-01T03:41:55.613Z,26.30
2019-04-01T03:44:23.718Z,25.13
2019-04-01T03:46:51.851Z,23.67
2019-04-01T03:49:19.985Z,24.03
2019-04-01T03:51:48.077Z,23.47
2019-04-01T03:54:16.376Z,23.40
2019-04-01T03:56:44.538Z,24.83
2019-04-01T03:59:12.637Z,23.30
2019-04-01T04:02:00.231Z,23.43
2019-04-01T04:04:47.682Z,22.97
2019-04-01T04:10:17.321Z,22.93
2019-04-01T04:12:45.475Z,22.00
2019-04-01T04:15:13.619Z,22.47
2019-04-01T04:17:41.827Z,21.43
2019-04-01T04:20:29.290Z,22.77
2019-04-01T04:22:57.878Z,21.73
2019-04-01T04:25:26.277Z,20.87
2019-04-01T04:28:13.917Z,23.10
2019-04-01T04:31:01.350Z,22.50
2019-04-01T04:33:29.463Z,21.03
2019-04-01T04:35:57.567Z,21.90
2019-04-01T04:38:45.060Z,20.93
2019-04-01T04:41:13.162Z,21.83
2019-04-01T04:43:41.266Z,21.10
2019-04-01T04:46:28.787Z,20.27
2019-04-01T04:48:56.902Z,21.37
2019-04-01T04:51:44.386Z,21.43
2019-04-01T04:54:31.830Z,20.40
2019-04-01T05:00:02.366Z,20.13
2019-04-01T05:02:30.538Z,18.73
2019-04-01T05:05:18.061Z,20.00
2019-04-01T05:07:46.328Z,21.73
2019-04-01T05:10:33.918Z,19.30
2019-04-01T05:13:02.166Z,19.53
2019-04-01T05:15:49.756Z,18.70
2019-04-01T05:18:37.205Z,19.37
2019-04-01T05:21:05.639Z,18.70
2019-04-01T05:23:53.086Z,18.80
2019-04-01T05:29:21.611Z,19.67
2019-04-01T05:31:49.961Z,19.27
2019-04-01T05:34:38.958Z,18.53
2019-04-01T05:37:08.944Z,19.40
2019-04-01T05:39:56.466Z,19.37
2019-04-01T05:42:49.523Z,19.90
2019-04-01T05:45:17.882Z,17.67
2019-04-01T05:50:34.975Z,18.57
2019-04-01T05:53:03.154Z,18.63
2019-04-01T05:55:31.425Z,18.20
2019-04-01T05:58:19.053Z,16.97
2019-04-01T06:01:06.497Z,17.63
2019-04-01T06:03:34.693Z,17.93
2019-04-01T06:06:22.149Z,17.57
2019-04-01T06:11:51.994Z,17.57
2019-04-01T06:14:20.216Z,16.97
2019-04-01T06:16:48.355Z,15.80
2019-04-01T06:19:16.636Z,15.90
2019-04-01T06:21:44.761Z,15.60
2019-04-01T06:24:13.007Z,16.20
2019-04-01T06:26:41.290Z,15.60
2019-04-01T06:29:10.113Z,15.03
2019-04-01T06:31:38.249Z,15.00
2019-04-01T06:34:25.809Z,15.27
2019-04-01T06:37:13.282Z,14.07
2019-04-01T06:39:42.052Z,13.53
2019-04-01T06:42:29.519Z,14.10
2019-04-01T06:44:57.671Z,13.33
2019-04-01T06:47:45.182Z,14.43
2019-04-01T06:56:13.258Z,13.90
2019-04-01T06:58:41.386Z,13.45
2019-04-01T07:01:28.889Z,12.60
2019-04-01T07:03:57.032Z,14.55
2019-04-01T07:06:25.190Z,13.45
2019-04-01T07:09:14.216Z,13.30
2019-04-01T07:14:55.166Z,12.75
2019-04-01T07:17:42.674Z,13.50
2019-04-01T07:20:10.951Z,13.30
2019-04-01T07:22:39.096Z,13.47
2019-04-01T07:25:07.311Z,13.50
2019-04-01T07:27:54.957Z,12.13
2019-04-01T07:30:42.435Z,12.23
2019-04-01T07:36:12.059Z,12.75
2019-04-01T07:41:49.392Z,13.85
2019-04-01T07:44:17.595Z,13.18
2019-04-01T07:46:45.816Z,12.78
2019-04-01T07:49:14.029Z,12.93
2019-04-01T07:51:42.590Z,12.60
2019-04-01T07:54:10.738Z,13.55
2019-04-01T07:56:38.950Z,13.93
2019-04-01T07:59:07.098Z,12.73
2019-04-01T08:01:35.233Z,12.37
2019-04-01T08:04:03.609Z,13.00
2019-04-01T08:06:31.755Z,12.28
2019-04-01T08:09:19.273Z,13.22
2019-04-01T08:12:06.760Z,13.15
2019-04-01T08:17:58.402Z,13.72
2019-04-01T08:20:26.546Z,13.20
2019-04-01T08:22:54.753Z,13.83
2019-04-01T08:25:23.098Z,12.45
2019-04-01T08:28:10.576Z,13.03
2019-04-01T08:31:04.290Z,13.28
2019-04-01T08:36:45.133Z,13.70
2019-04-01T08:39:32.619Z,12.70
2019-04-01T08:51:24.490Z,12.55
2019-04-01T08:57:05.338Z,12.18
2019-04-01T08:59:33.554Z,12.63
2019-04-01T09:02:21.057Z,14.68
2019-04-01T09:04:49.216Z,13.30
2019-04-01T09:07:17.363Z,13.18
2019-04-01T09:10:04.894Z,12.25
2019-04-01T09:15:45.273Z,12.15
2019-04-01T09:18:13.480Z,12.73
2019-04-01T09:20:41.622Z,11.50
2019-04-01T09:23:10.067Z,12.93
2019-04-01T09:25:57.543Z,13.15
2019-04-01T09:31:24.981Z,12.82
2019-04-01T09:33:53.136Z,11.00
2019-04-01T09:36:40.847Z,13.65
2019-04-01T09:39:08.990Z,13.28
2019-04-01T09:41:37.155Z,13.18
2019-04-01T09:44:05.709Z,12.90
2019-04-01T09:46:53.211Z,12.98
2019-04-01T09:55:19.083Z,11.97
2019-04-01T09:58:06.558Z,12.73
2019-04-01T10:03:36.268Z,11.60
2019-04-01T10:06:04.394Z,12.88
2019-04-01T10:11:21.562Z,13.72
2019-04-01T10:13:49.689Z,13.35
2019-04-01T10:16:17.841Z,11.73
2019-04-01T10:18:46.015Z,13.83
2019-04-01T10:21:33.498Z,13.93
2019-04-01T10:24:01.986Z,12.18
2019-04-01T10:26:30.208Z,13.43
2019-04-01T10:28:58.343Z,13.50
2019-04-01T10:33:54.129Z,14.35
2019-04-01T10:36:22.284Z,11.35
2019-04-01T10:39:10.081Z,12.80
2019-04-01T10:41:38.229Z,13.78
2019-04-01T10:44:06.383Z,13.78
2019-04-01T10:46:34.904Z,11.83
2019-04-01T10:49:03.114Z,14.87
2019-04-01T10:51:31.414Z,14.15
2019-04-01T10:54:19.087Z,12.40
2019-04-01T10:56:47.455Z,12.45
2019-04-01T11:02:09.396Z,12.75
2019-04-01T11:04:37.737Z,11.95
2019-04-01T11:07:06.038Z,13.68
2019-04-01T11:09:38.544Z,11.20
2019-04-01T11:12:04.144Z,13.32
2019-04-01T11:14:32.283Z,13.45
2019-04-01T11:17:04.028Z,14.90
2019-04-01T11:19:30.717Z,15.60
2019-04-01T11:21:58.854Z,15.32
2019-04-01T11:24:46.435Z,14.87
2019-04-01T11:27:15.056Z,16.30
2019-04-01T11:30:02.536Z,15.28
2019-04-01T11:32:30.710Z,16.93
2019-04-01T11:35:18.253Z,15.20
2019-04-01T11:37:46.473Z,15.32
2019-04-01T11:40:38.631Z,14.10
2019-04-01T11:43:24.732Z,15.70
2019-04-01T11:45:53.402Z,15.50
2019-04-01T11:48:21.823Z,15.23
2019-04-01T11:50:50.005Z,13.25
2019-04-01T11:53:18.155Z,14.78
2019-04-01T11:55:46.384Z,12.78
2019-04-01T11:58:14.524Z,14.38
2019-04-01T12:00:42.805Z,16.20
2019-04-01T12:03:30.280Z,15.45
2019-04-01T12:05:58.571Z,16.82
2019-04-01T12:08:26.712Z,15.95
2019-04-01T12:10:54.921Z,15.78
2019-04-01T12:13:42.546Z,15.30
2019-04-01T12:16:30.027Z,18.15
2019-04-01T12:18:58.282Z,16.90
2019-04-01T12:21:26.450Z,17.37
2019-04-01T12:23:54.595Z,16.55
2019-04-01T12:28:56.709Z,16.10
2019-04-01T12:31:44.202Z,18.45
2019-04-01T12:34:12.433Z,17.37
2019-04-01T12:36:40.570Z,21.70
2019-04-01T12:39:09.070Z,17.32
2019-04-01T12:41:37.210Z,17.42
2019-04-01T12:44:05.415Z,17.25
2019-04-01T12:46:33.970Z,18.23
2019-04-01T12:49:02.105Z,16.02
2019-04-01T12:51:30.257Z,18.35
2019-04-01T12:53:58.500Z,16.00
2019-04-01T12:56:26.650Z,15.45
2019-04-01T12:58:54.938Z,16.60
2019-04-01T13:01:23.151Z,17.67
2019-04-01T13:03:51.324Z,18.07
2019-04-01T13:06:19.488Z,17.07
2019-04-01T13:08:47.769Z,17.60
2019-04-01T13:11:15.922Z,18.07
2019-04-01T13:13:44.781Z,16.57
2019-04-01T13:16:13.218Z,16.48
2019-04-01T13:18:41.404Z,17.25
2019-04-01T13:21:10.997Z,16.70
2019-04-01T13:23:39.665Z,17.02
2019-04-01T13:26:07.801Z,18.50
2019-04-01T13:28:35.942Z,18.85
2019-04-01T13:31:04.412Z,19.17
2019-04-01T13:33:32.545Z,17.25
2019-04-01T13:36:00.701Z,17.82
2019-04-01T13:38:29.284Z,15.78
2019-04-01T13:40:57.422Z,16.70
2019-04-01T13:43:25.570Z,16.80
2019-04-01T13:45:53.906Z,17.52
2019-04-01T13:48:22.046Z,17.45
2019-04-01T13:50:50.206Z,16.50
2019-04-01T13:53:18.359Z,17.42
2019-04-01T13:55:46.518Z,17.30
2019-04-01T13:58:17.441Z,17.20
2019-04-01T14:00:44.702Z,17.32
2019-04-01T14:03:12.833Z,17.17
2019-04-01T14:05:40.993Z,16.48
2019-04-01T14:08:09.411Z,17.87
2019-04-01T14:10:40.430Z,16.70
2019-04-01T14:13:07.417Z,17.25
2019-04-01T14:15:35.913Z,18.73
2019-04-01T14:18:04.066Z,17.07
2019-04-01T14:20:32.206Z,16.23
2019-04-01T14:23:00.738Z,18.23
2019-04-01T14:25:28.898Z,17.67
2019-04-01T14:27:57.045Z,16.77
2019-04-01T14:30:25.263Z,16.60
2019-04-01T14:32:53.726Z,16.12
2019-04-01T14:35:23.867Z,16.82
2019-04-01T14:37:51.954Z,16.20
2019-04-01T14:40:20.103Z,15.83
2019-04-01T14:42:48.242Z,17.37
2019-04-01T14:47:55.599Z,16.17
2019-04-01T14:50:20.343Z,16.90
2019-04-01T14:52:48.571Z,16.52
2019-04-01T14:55:16.705Z,15.05
2019-04-01T14:57:44.892Z,16.20
2019-04-01T15:00:13.685Z,14.95
2019-04-01T15:02:41.981Z,15.40
2019-04-01T15:05:29.621Z,15.03
2019-04-01T15:07:57.879Z,15.03
2019-04-01T15:10:45.418Z,16.77
2019-04-01T15:13:13.562Z,14.47
2019-04-01T15:15:41.835Z,15.90
2019-04-01T15:18:29.540Z,15.48
2019-04-01T15:20:57.861Z,14.07
2019-04-01T15:23:45.518Z,15.38
2019-04-01T15:26:13.661Z,16.10
2019-04-01T15:28:41.822Z,15.78
2019-04-01T15:31:09.986Z,14.95
2019-04-01T15:33:38.170Z,15.98
2019-04-01T15:36:06.307Z,15.20
2019-04-01T15:38:34.464Z,15.10
2019-04-01T15:41:02.586Z,14.30
2019-04-01T15:43:50.142Z,15.35
2019-04-01T15:49:30.965Z,14.87
2019-04-01T15:51:59.183Z,14.63
2019-04-01T15:54:27.368Z,14.80
2019-04-01T15:56:55.641Z,15.08
2019-04-01T15:59:23.818Z,15.08
2019-04-01T16:01:51.961Z,15.90
2019-04-01T16:04:20.291Z,15.25
2019-04-01T16:06:48.421Z,16.27
2019-04-01T16:09:16.632Z,15.58
2019-04-01T16:11:44.783Z,16.70
2019-04-01T16:14:12.941Z,16.90
2019-04-01T16:16:41.098Z,15.65
2019-04-01T16:19:09.440Z,14.90
2019-04-01T16:21:37.667Z,14.73
2019-04-01T16:24:05.833Z,15.32
2019-04-01T16:26:34.180Z,15.93
2019-04-01T16:29:02.368Z,15.45
2019-04-01T16:31:30.525Z,15.05
2019-04-01T16:33:58.902Z,14.90
2019-04-01T16:39:16.112Z,15.80
2019-04-01T16:41:44.249Z,15.13
2019-04-01T16:44:12.394Z,15.30
2019-04-01T16:46:41.105Z,15.18
2019-04-01T16:49:36.109Z,15.00
2019-04-01T16:52:04.719Z,15.13
2019-04-01T16:54:32.864Z,14.50
2019-04-01T16:57:01.022Z,15.45
2019-04-01T16:59:29.252Z,14.45
2019-04-01T17:01:57.831Z,14.58
2019-04-01T17:04:26.210Z,14.13
2019-04-01T17:06:54.450Z,14.13
2019-04-01T17:09:22.608Z,14.50
2019-04-01T17:11:54.063Z,14.13
2019-04-01T17:14:20.837Z,14.73
2019-04-01T17:16:48.978Z,14.40
2019-04-01T17:19:17.126Z,14.80
2019-04-01T17:22:04.735Z,13.45
2019-04-01T17:24:32.945Z,14.47
2019-04-01T17:27:02.658Z,14.20
2019-04-01T17:29:31.910Z,15.03
2019-04-01T17:32:00.232Z,14.75
2019-04-01T17:34:28.377Z,14.50
2019-04-01T17:36:56.633Z,14.43
2019-04-01T17:39:24.782Z,14.98
2019-04-01T17:41:52.934Z,13.78
2019-04-01T17:44:21.178Z,15.13
2019-04-01T17:46:49.314Z,14.78
2019-04-01T17:51:53.978Z,13.43
2019-04-01T17:54:21.662Z,13.45
2019-04-01T17:56:49.797Z,13.60
2019-04-01T17:59:18.119Z,13.45
2019-04-01T18:01:46.271Z,13.80
2019-04-01T18:04:14.588Z,14.00
2019-04-01T18:06:42.836Z,14.70
2019-04-01T18:09:11.074Z,14.25
2019-04-01T18:11:39.271Z,13.72
2019-04-01T18:14:07.403Z,13.13
2019-04-01T18:16:35.542Z,12.85
2019-04-01T18:19:03.682Z,13.00
2019-04-01T18:21:32.349Z,13.55
2019-04-01T18:24:00.549Z,13.40
2019-04-01T18:26:28.679Z,13.18
2019-04-01T18:28:56.933Z,12.95
2019-04-01T18:31:25.066Z,12.88
2019-04-01T18:33:56.319Z,13.10
2019-04-01T18:36:23.440Z,12.88
2019-04-01T18:38:51.634Z,11.00
2019-04-01T18:41:19.761Z,11.78
2019-04-01T18:43:47.980Z,12.37
2019-04-01T18:46:16.105Z,12.07
2019-04-01T18:49:03.909Z,13.30
2019-04-01T18:51:32.122Z,11.85
2019-04-01T18:54:00.254Z,12.07
2019-04-01T18:56:29.195Z,12.10
2019-04-01T18:58:57.600Z,13.20
2019-04-01T19:01:25.809Z,13.00
2019-04-01T19:03:54.078Z,12.37
2019-04-01T19:06:22.214Z,12.47
2019-04-01T19:08:50.350Z,12.78
2019-04-01T19:11:18.550Z,13.13
2019-04-01T19:13:46.719Z,11.53
2019-04-01T19:16:16.708Z,12.78
2019-04-01T19:18:44.828Z,12.40
2019-04-01T19:21:12.962Z,12.73
2019-04-01T19:24:00.574Z,12.63
2019-04-01T19:26:28.727Z,12.43
2019-04-01T19:28:58.328Z,13.05
2019-04-01T19:31:26.765Z,12.47
2019-04-01T19:33:54.918Z,12.40
2019-04-01T19:36:25.604Z,12.50
2019-04-01T19:38:54.501Z,12.18
2019-04-01T19:41:22.854Z,11.83
2019-04-01T19:43:51.357Z,11.55
2019-04-01T19:46:19.845Z,11.90
2019-04-01T19:48:47.996Z,11.35
2019-04-01T19:51:16.143Z,12.23
2019-04-01T19:53:44.421Z,11.70
2019-04-01T19:56:12.537Z,11.18
2019-04-01T19:58:40.654Z,11.07
2019-04-01T20:01:08.782Z,11.33
2019-04-01T20:03:36.979Z,10.78
2019-04-01T20:06:07.394Z,11.12
2019-04-01T20:08:35.046Z,11.28
2019-04-01T20:11:03.158Z,10.35
2019-04-01T20:13:50.781Z,11.08
2019-04-01T20:16:18.904Z,10.70
2019-04-01T20:18:47.010Z,11.48
2019-04-01T20:21:15.417Z,10.90
2019-04-01T20:23:43.549Z,10.65
2019-04-01T20:26:11.686Z,11.37
2019-04-01T20:28:40.058Z,10.88
2019-04-01T20:31:08.194Z,10.30
2019-04-01T20:33:36.369Z,10.03
2019-04-01T20:36:04.881Z,10.75
2019-04-01T20:38:33.022Z,9.85
2019-04-01T20:41:01.161Z,11.20
2019-04-01T20:43:29.394Z,10.80
2019-04-01T20:45:57.540Z,9.63
2019-04-01T20:48:25.703Z,10.00
2019-04-01T20:50:57.270Z,10.58
2019-04-01T20:53:25.735Z,10.23
2019-04-01T20:55:54.074Z,10.78
2019-04-01T20:58:22.282Z,9.50
2019-04-01T21:00:50.444Z,10.43
2019-04-01T21:03:18.561Z,9.27
2019-04-01T21:05:46.733Z,10.35
2019-04-01T21:08:16.202Z,9.78
2019-04-01T21:10:44.500Z,10.08
2019-04-01T21:13:12.797Z,9.45
2019-04-01T21:15:40.967Z,10.28
2019-04-01T21:18:09.142Z,10.00
2019-04-01T21:20:37.451Z,10.30
2019-04-01T21:23:07.042Z,10.28
2019-04-01T21:25:35.398Z,9.20
2019-04-01T21:28:05.137Z,10.50
2019-04-01T21:30:33.273Z,9.95
2019-04-01T21:33:01.414Z,9.28
2019-04-01T21:35:29.577Z,9.90
2019-04-01T21:37:57.728Z,9.18
2019-04-01T21:40:25.853Z,9.83
2019-04-01T21:42:56.574Z,9.68
2019-04-01T21:45:24.716Z,10.00
2019-04-01T21:47:52.850Z,9.30
2019-04-01T21:50:21.322Z,9.88
2019-04-01T21:52:49.459Z,9.20
2019-04-01T21:55:17.592Z,9.60
2019-04-01T21:57:45.795Z,9.20
2019-04-01T22:00:17.889Z,10.28
2019-04-01T22:02:45.606Z,9.75
2019-04-01T22:05:13.777Z,9.75
2019-04-01T22:07:41.925Z,9.55
2019-04-01T22:10:10.131Z,9.75
2019-04-01T22:12:38.294Z,9.30
2019-04-01T22:15:06.548Z,9.40
2019-04-01T22:17:35.080Z,9.47
2019-04-01T22:20:04.678Z,9.63
2019-04-01T22:22:33.007Z,9.57
2019-04-01T22:25:01.363Z,9.80
2019-04-01T22:27:30.129Z,9.43
2019-04-01T22:29:58.319Z,9.17
2019-04-01T22:32:27.114Z,9.20
2019-04-01T22:34:55.471Z,8.97
2019-04-01T22:37:27.559Z,9.13
2019-04-01T22:45:49.654Z,8.43
2019-04-01T22:48:18.235Z,8.70
2019-04-01T22:50:46.391Z,9.60
2019-04-01T22:53:14.662Z,8.93
2019-04-01T22:55:42.803Z,8.70
2019-04-01T22:58:14.132Z,8.87
2019-04-01T23:00:42.502Z,9.33
2019-04-01T23:03:11.444Z,9.70
2019-04-01T23:05:39.853Z,8.60
2019-04-01T23:08:08.009Z,8.13
2019-04-01T23:10:36.154Z,8.60
2019-04-01T23:13:04.290Z,8.98
2019-04-01T23:15:32.489Z,8.00
2019-04-01T23:18:00.645Z,8.13
2019-04-01T23:20:28.854Z,8.43
2019-04-01T23:22:58.001Z,8.40
2019-04-01T23:25:26.712Z,8.67
2019-04-01T23:27:55.492Z,8.30
2019-04-01T23:30:24.194Z,8.17
2019-04-01T23:32:52.442Z,7.93
2019-04-01T23:35:20.637Z,8.27
2019-04-01T23:37:48.935Z,8.00
2019-04-01T23:40:17.070Z,8.37
2019-04-01T23:42:45.206Z,8.37
2019-04-01T23:45:13.690Z,7.97
2019-04-01T23:47:41.834Z,8.37
2019-04-01T23:50:09.995Z,8.20
2019-04-01T23:52:38.209Z,8.17
2019-04-01T23:55:06.374Z,8.20
2019-04-01T23:57:34.520Z,8.30
